CPA525 LTFM-VHHH
Flight info
| Callsign | CPA525 |
|---|---|
| Flight time | N/A |
| Altitude | 37000 |
| Route | EKAWE UT643 GAKSU UT310 SIN UN644 KARDE UL851 TBN UR317 REBLO DCT MATAL T916 SUBUT T923 ERLEV M11 RODAR A909 BABUM A477 POGON/K0904F370 T388 BUPOR/K0896F390 Q169 INDUD M875 AMDAR/N0485F390 M875 TAPIS L509 NONIB T400 SULOM M890 LKN A201 LSO/N0487F410 A599 LINSO/K0900S1250 A599 POU R473 SIERA |
| Aircraft | A359/H-SDE2E3GHIJ3J4J5LM1ORWXY/LB1D1 |
Departure
| Time | 2026-05-06 10:36 |
|---|---|
| Airport | İstanbul Airport (LTFM) |
Arrival
| Time | N/A |
|---|---|
| Airport | Hong Kong International Airport (VHHH) |
| Time | Latitude | Longitude | Altitude | Speed | Heading |
|---|---|---|---|---|---|
| 2026-05-06 09:57 | 41.26674 | 28.74129 | 340 ft | 0 kts | 91° |
| 2026-05-06 10:27 | 41.26674 | 28.74128 | 340 ft | 2 kts | 91° |
| 2026-05-06 10:27 | 41.26675 | 28.74095 | 335 ft | 4 kts | 91° |
| 2026-05-06 10:28 | 41.26675 | 28.74062 | 340 ft | 3 kts | 91° |
| 2026-05-06 10:28 | 41.26671 | 28.74032 | 340 ft | 4 kts | 39° |
| 2026-05-06 10:28 | 41.26648 | 28.74022 | 340 ft | 4 kts | 359° |
| 2026-05-06 10:28 | 41.26631 | 28.74023 | 340 ft | 1 kts | 359° |
| 2026-05-06 10:29 | 41.26629 | 28.74023 | 340 ft | 0 kts | 359° |
| 2026-05-06 10:31 | 41.26650 | 28.74022 | 337 ft | 6 kts | 359° |
| 2026-05-06 10:31 | 41.26722 | 28.74021 | 340 ft | 14 kts | 359° |
| 2026-05-06 10:31 | 41.26818 | 28.74018 | 337 ft | 14 kts | 359° |
| 2026-05-06 10:32 | 41.26923 | 28.74005 | 335 ft | 16 kts | 333° |
| 2026-05-06 10:32 | 41.26963 | 28.73856 | 340 ft | 20 kts | 270° |
| 2026-05-06 10:32 | 41.26963 | 28.73651 | 340 ft | 24 kts | 269° |
| 2026-05-06 10:32 | 41.26958 | 28.73411 | 335 ft | 28 kts | 268° |
| 2026-05-06 10:33 | 41.26953 | 28.73147 | 336 ft | 27 kts | 268° |
| 2026-05-06 10:33 | 41.26929 | 28.73013 | 335 ft | 13 kts | 219° |
| 2026-05-06 10:33 | 41.26824 | 28.72991 | 335 ft | 17 kts | 177° |
| 2026-05-06 10:33 | 41.26690 | 28.72993 | 340 ft | 21 kts | 179° |
| 2026-05-06 10:34 | 41.26534 | 28.72998 | 335 ft | 25 kts | 179° |
| 2026-05-06 10:34 | 41.26349 | 28.73002 | 340 ft | 26 kts | 179° |
| 2026-05-06 10:34 | 41.26229 | 28.72967 | 336 ft | 10 kts | 240° |
| 2026-05-06 10:34 | 41.26215 | 28.72850 | 337 ft | 15 kts | 275° |
| 2026-05-06 10:35 | 41.26283 | 28.72778 | 334 ft | 14 kts | 353° |
| 2026-05-06 10:35 | 41.26300 | 28.72777 | 340 ft | 0 kts | 357° |
| 2026-05-06 10:35 | 41.26422 | 28.72771 | 336 ft | 52 kts | 359° |
| 2026-05-06 10:35 | 41.27057 | 28.72757 | 338 ft | 129 kts | 359° |
| 2026-05-06 10:36 | 41.28147 | 28.72713 | 639 ft | 164 kts | 358° |
| 2026-05-06 10:36 | 41.29275 | 28.72656 | 1571 ft | 164 kts | 2° |
| 2026-05-06 10:36 | 41.30410 | 28.72657 | 2515 ft | 163 kts | 3° |
| 2026-05-06 10:36 | 41.31616 | 28.72664 | 3081 ft | 185 kts | 0° |
| 2026-05-06 10:37 | 41.32966 | 28.72650 | 3327 ft | 203 kts | 359° |
| 2026-05-06 10:37 | 41.34455 | 28.72621 | 3519 ft | 225 kts | 359° |
| 2026-05-06 10:37 | 41.36085 | 28.72584 | 3744 ft | 244 kts | 359° |
| 2026-05-06 10:37 | 41.37842 | 28.72475 | 4051 ft | 259 kts | 351° |
| 2026-05-06 10:38 | 41.39561 | 28.71722 | 4627 ft | 261 kts | 335° |
| 2026-05-06 10:38 | 41.41208 | 28.70680 | 5298 ft | 263 kts | 334° |
| 2026-05-06 10:38 | 41.42860 | 28.69611 | 5930 ft | 266 kts | 334° |
| 2026-05-06 10:38 | 41.44538 | 28.68529 | 6599 ft | 268 kts | 334° |
| 2026-05-06 10:39 | 41.46218 | 28.67448 | 7306 ft | 269 kts | 335° |
| 2026-05-06 10:39 | 41.47907 | 28.66364 | 8017 ft | 270 kts | 335° |
| 2026-05-06 10:39 | 41.49591 | 28.65285 | 8660 ft | 274 kts | 335° |
| 2026-05-06 10:39 | 41.51319 | 28.64179 | 9343 ft | 276 kts | 335° |
| 2026-05-06 10:40 | 41.53052 | 28.63069 | 10052 ft | 277 kts | 335° |
| 2026-05-06 10:40 | 41.54871 | 28.62124 | 10528 ft | 287 kts | 347° |
| 2026-05-06 10:40 | 41.56915 | 28.62083 | 10769 ft | 305 kts | 12° |
| 2026-05-06 10:40 | 41.58862 | 28.63364 | 11003 ft | 325 kts | 39° |
| 2026-05-06 10:41 | 41.60342 | 28.65751 | 11289 ft | 343 kts | 54° |
| 2026-05-06 10:41 | 41.61644 | 28.68498 | 11566 ft | 358 kts | 56° |
| 2026-05-06 10:41 | 41.62985 | 28.71373 | 11920 ft | 368 kts | 56° |
| 2026-05-06 10:41 | 41.64359 | 28.74286 | 12462 ft | 372 kts | 55° |
| 2026-05-06 10:42 | 41.65753 | 28.77220 | 13051 ft | 375 kts | 55° |
| 2026-05-06 10:42 | 41.67165 | 28.80179 | 13609 ft | 379 kts | 55° |
| 2026-05-06 10:42 | 41.68592 | 28.83162 | 13993 ft | 382 kts | 55° |
| 2026-05-06 10:42 | 41.70029 | 28.86165 | 14100 ft | 383 kts | 55° |
| 2026-05-06 10:43 | 41.71449 | 28.89133 | 14102 ft | 384 kts | 55° |
| 2026-05-06 10:43 | 41.72881 | 28.92154 | 14098 ft | 385 kts | 57° |
| 2026-05-06 10:43 | 41.74132 | 28.95333 | 14152 ft | 388 kts | 62° |
| 2026-05-06 10:44 | 41.76416 | 29.01931 | 15243 ft | 392 kts | 63° |
| 2026-05-06 10:44 | 41.77564 | 29.05262 | 15794 ft | 395 kts | 63° |
| 2026-05-06 10:44 | 41.78719 | 29.08613 | 16319 ft | 398 kts | 63° |
| 2026-05-06 10:44 | 41.79886 | 29.12001 | 16824 ft | 402 kts | 63° |
| 2026-05-06 10:45 | 41.81060 | 29.15413 | 17347 ft | 404 kts | 63° |
| 2026-05-06 10:45 | 41.82242 | 29.18850 | 17854 ft | 408 kts | 63° |
| 2026-05-06 10:45 | 41.83435 | 29.22322 | 18339 ft | 411 kts | 63° |
| 2026-05-06 10:45 | 41.84635 | 29.25819 | 18845 ft | 414 kts | 63° |
| 2026-05-06 10:46 | 41.85845 | 29.29350 | 19352 ft | 417 kts | 63° |
| 2026-05-06 10:46 | 41.87059 | 29.32897 | 19856 ft | 420 kts | 63° |
| 2026-05-06 10:46 | 41.88280 | 29.36469 | 20361 ft | 423 kts | 63° |
| 2026-05-06 10:46 | 41.89512 | 29.40074 | 20868 ft | 426 kts | 63° |
| 2026-05-06 10:47 | 41.90917 | 29.43582 | 21330 ft | 427 kts | 54° |
| 2026-05-06 10:47 | 41.92749 | 29.46722 | 21842 ft | 427 kts | 47° |
| 2026-05-06 10:47 | 41.94715 | 29.49736 | 22309 ft | 430 kts | 47° |
| 2026-05-06 10:47 | 41.96705 | 29.52759 | 22765 ft | 434 kts | 47° |
| 2026-05-06 10:48 | 41.98707 | 29.55811 | 23222 ft | 436 kts | 47° |
| 2026-05-06 10:48 | 42.00693 | 29.58848 | 23683 ft | 439 kts | 47° |
| 2026-05-06 10:48 | 42.02631 | 29.62037 | 24125 ft | 442 kts | 53° |
| 2026-05-06 10:48 | 42.04200 | 29.65616 | 24571 ft | 447 kts | 63° |
| 2026-05-06 10:49 | 42.05242 | 29.69583 | 24961 ft | 453 kts | 74° |
| 2026-05-06 10:49 | 42.05688 | 29.73811 | 25330 ft | 461 kts | 85° |
| 2026-05-06 10:49 | 42.05570 | 29.78145 | 25702 ft | 466 kts | 92° |
| 2026-05-06 10:49 | 42.05264 | 29.82510 | 26069 ft | 470 kts | 93° |
| 2026-05-06 10:50 | 42.04940 | 29.86897 | 26417 ft | 473 kts | 93° |
| 2026-05-06 10:50 | 42.04617 | 29.91323 | 26777 ft | 476 kts | 93° |
| 2026-05-06 10:50 | 42.04296 | 29.95775 | 27133 ft | 479 kts | 93° |
| 2026-05-06 10:50 | 42.03980 | 30.00193 | 27465 ft | 483 kts | 92° |
| 2026-05-06 10:51 | 42.03648 | 30.04701 | 27805 ft | 486 kts | 94° |
| 2026-05-06 10:51 | 42.03052 | 30.09206 | 28128 ft | 492 kts | 102° |
| 2026-05-06 10:51 | 42.01908 | 30.13560 | 28434 ft | 499 kts | 112° |
| 2026-05-06 10:51 | 42.00187 | 30.17647 | 28711 ft | 505 kts | 122° |
| 2026-05-06 10:52 | 41.98872 | 30.20233 | 28910 ft | 507 kts | 123° |
| 2026-05-06 10:52 | 41.96788 | 30.24090 | 29185 ft | 510 kts | 125° |
| 2026-05-06 10:52 | 41.94647 | 30.27905 | 29455 ft | 513 kts | 125° |
| 2026-05-06 10:52 | 41.92479 | 30.31728 | 29731 ft | 515 kts | 125° |
| 2026-05-06 10:53 | 41.90305 | 30.35566 | 29986 ft | 518 kts | 125° |
| 2026-05-06 10:53 | 41.88130 | 30.39429 | 30273 ft | 519 kts | 125° |
| 2026-05-06 10:53 | 41.85961 | 30.43301 | 30630 ft | 518 kts | 125° |
| 2026-05-06 10:53 | 41.83805 | 30.47165 | 31043 ft | 516 kts | 124° |
| 2026-05-06 10:54 | 41.81673 | 30.51041 | 31375 ft | 515 kts | 122° |
| 2026-05-06 10:54 | 41.79830 | 30.55143 | 31662 ft | 512 kts | 114° |
| 2026-05-06 10:54 | 41.78442 | 30.59523 | 31985 ft | 507 kts | 105° |
| 2026-05-06 10:54 | 41.77580 | 30.64076 | 32294 ft | 502 kts | 96° |
| 2026-05-06 10:55 | 41.77272 | 30.68702 | 32576 ft | 496 kts | 86° |
| 2026-05-06 10:55 | 41.77508 | 30.73228 | 32848 ft | 491 kts | 77° |
| 2026-05-06 10:55 | 41.78180 | 30.77692 | 33134 ft | 487 kts | 73° |
| 2026-05-06 10:55 | 41.78978 | 30.82098 | 33433 ft | 485 kts | 71° |
| 2026-05-06 10:56 | 41.79823 | 30.86468 | 33724 ft | 484 kts | 71° |
| 2026-05-06 10:56 | 41.80682 | 30.90829 | 33998 ft | 483 kts | 71° |
| 2026-05-06 10:56 | 41.81534 | 30.95182 | 34249 ft | 482 kts | 71° |
| 2026-05-06 10:56 | 41.82377 | 30.99541 | 34472 ft | 483 kts | 72° |
| 2026-05-06 10:57 | 41.83208 | 31.03902 | 34676 ft | 483 kts | 72° |
| 2026-05-06 10:57 | 41.84030 | 31.08263 | 34887 ft | 483 kts | 72° |
| 2026-05-06 10:57 | 41.84878 | 31.12618 | 35098 ft | 482 kts | 71° |
| 2026-05-06 10:57 | 41.85789 | 31.16940 | 35282 ft | 481 kts | 70° |
| 2026-05-06 10:58 | 41.86731 | 31.21253 | 35456 ft | 482 kts | 70° |
| 2026-05-06 10:58 | 41.87667 | 31.25518 | 35650 ft | 481 kts | 70° |
| 2026-05-06 10:58 | 41.88605 | 31.29825 | 35815 ft | 481 kts | 70° |
| 2026-05-06 10:58 | 41.89535 | 31.34140 | 35979 ft | 482 kts | 71° |
| 2026-05-06 10:59 | 41.90458 | 31.38466 | 36126 ft | 482 kts | 71° |
| 2026-05-06 10:59 | 41.91376 | 31.42797 | 36279 ft | 482 kts | 71° |
| 2026-05-06 10:59 | 41.92288 | 31.47126 | 36420 ft | 482 kts | 71° |
| 2026-05-06 10:59 | 41.93199 | 31.51464 | 36560 ft | 482 kts | 71° |
| 2026-05-06 11:00 | 41.94108 | 31.55805 | 36699 ft | 483 kts | 71° |
| 2026-05-06 11:00 | 41.95015 | 31.60141 | 36843 ft | 482 kts | 72° |
| 2026-05-06 11:00 | 41.95925 | 31.64489 | 36995 ft | 482 kts | 72° |
| 2026-05-06 11:00 | 41.96829 | 31.68827 | 37111 ft | 482 kts | 72° |
| 2026-05-06 11:01 | 41.97723 | 31.73120 | 37129 ft | 484 kts | 72° |
| 2026-05-06 11:01 | 41.99535 | 31.81854 | 37129 ft | 485 kts | 72° |
| 2026-05-06 11:02 | 42.01337 | 31.90570 | 37119 ft | 482 kts | 72° |
| 2026-05-06 11:02 | 42.03129 | 31.99249 | 37120 ft | 481 kts | 72° |
| 2026-05-06 11:03 | 42.04909 | 32.07924 | 37124 ft | 480 kts | 72° |
| 2026-05-06 11:03 | 42.06683 | 32.16602 | 37121 ft | 480 kts | 72° |
| 2026-05-06 11:04 | 42.08450 | 32.25278 | 37116 ft | 480 kts | 72° |
| 2026-05-06 11:04 | 42.10268 | 32.33872 | 37120 ft | 480 kts | 71° |
| 2026-05-06 11:05 | 42.12272 | 32.42440 | 37106 ft | 479 kts | 70° |
| 2026-05-06 11:05 | 42.14280 | 32.50997 | 37108 ft | 479 kts | 70° |
| 2026-05-06 11:06 | 42.16145 | 32.59619 | 37110 ft | 481 kts | 76° |
| 2026-05-06 11:06 | 42.16818 | 32.68606 | 37110 ft | 483 kts | 85° |
| 2026-05-06 11:07 | 42.17061 | 32.77660 | 37104 ft | 483 kts | 86° |
| 2026-05-06 11:07 | 42.17233 | 32.86723 | 37097 ft | 483 kts | 86° |
| 2026-05-06 11:08 | 42.17410 | 32.95779 | 37097 ft | 483 kts | 86° |
| 2026-05-06 11:08 | 42.17596 | 33.04844 | 37097 ft | 483 kts | 86° |
| 2026-05-06 11:09 | 42.17781 | 33.13909 | 37096 ft | 483 kts | 87° |
| 2026-05-06 11:09 | 42.17957 | 33.22926 | 37090 ft | 483 kts | 87° |
| 2026-05-06 11:10 | 42.18126 | 33.31991 | 37087 ft | 484 kts | 87° |
| 2026-05-06 11:10 | 42.18288 | 33.41070 | 37094 ft | 484 kts | 87° |
| 2026-05-06 11:11 | 42.18443 | 33.50161 | 37094 ft | 485 kts | 88° |
| 2026-05-06 11:11 | 42.18591 | 33.59252 | 37097 ft | 485 kts | 88° |
| 2026-05-06 11:12 | 42.18732 | 33.68351 | 37099 ft | 485 kts | 88° |
| 2026-05-06 11:12 | 42.18865 | 33.77452 | 37094 ft | 486 kts | 88° |
| 2026-05-06 11:13 | 42.18278 | 33.86542 | 37106 ft | 487 kts | 97° |
| 2026-05-06 11:13 | 42.17219 | 33.95525 | 37099 ft | 488 kts | 98° |
| 2026-05-06 11:14 | 42.16074 | 34.04544 | 37096 ft | 488 kts | 99° |
| 2026-05-06 11:14 | 42.14925 | 34.13560 | 37113 ft | 488 kts | 98° |
| 2026-05-06 11:15 | 42.13781 | 34.22583 | 37106 ft | 488 kts | 98° |
| 2026-05-06 11:15 | 42.12636 | 34.31598 | 37106 ft | 488 kts | 99° |
| 2026-05-06 11:16 | 42.11483 | 34.40613 | 37115 ft | 488 kts | 99° |
| 2026-05-06 11:16 | 42.10308 | 34.49618 | 37116 ft | 487 kts | 99° |
| 2026-05-06 11:17 | 42.09066 | 34.58526 | 37126 ft | 487 kts | 100° |
| 2026-05-06 11:17 | 42.07803 | 34.67478 | 37122 ft | 487 kts | 100° |